Dati Storici

Data ora Umidita' aria (%) Temperatura aria (°C) Rad globale (W/m²) Gonioanemometro (°) Tacoanemometro (m/s) Pioggia (mm)
30-10-2012 16:50 57.7 % 10.43 91.174 85.057 1.361 0
30-10-2012 16:40 56 % 10.622 132.235 96.726 1.787 0
30-10-2012 16:30 54.3 % 10.54 97.468 126.116 0.817 0
30-10-2012 16:20 53.7 % 11.066 121.555 122.46 0.957 0
30-10-2012 16:10 53.3 % 11.219 264.321 122.584 1.581 0
30-10-2012 16:00 52.2 % 11.523 206.195 99.16 0.69 0
30-10-2012 15:50 53.3 % 11.436 161.61 109.57 1.459 0
30-10-2012 15:40 53 % 11.348 293.153 108.995 1.629 0
30-10-2012 15:30 53.1 % 11.431 322.081 87.837 1.605 0
30-10-2012 15:20 53 % 11.615 338.871 132.81 2.02 0
30-10-2012 15:10 54 % 11.397 355.861 97.478 0.323 0
30-10-2012 15:00 53.2 % 11.646 366.925 111.253 0.941 0
30-10-2012 14:50 54.4 % 11.257 395.963 109.09 1.876 0
30-10-2012 14:40 55 % 11.369 390.55 152.33 1.761 0
30-10-2012 14:30 53.9 % 11.053 432.043 100.934 1.94 0
30-10-2012 14:20 50.8 % 12.05 419.816 99.156 2.017 0
30-10-2012 14:10 49.4 % 11.892 466.155 16.262 1.183 0
30-10-2012 14:00 49.1 % 12.031 477.325 223.646 0.222 0
30-10-2012 13:50 49.4 % 11.037 492.579 183.986 0.918 0
30-10-2012 13:40 49.7 % 11.332 513.086 280.319 0.892 0

I dati sono presentati in modo automatico a scopo informativo. In seguito a verifica i dati possono subire modifiche o essere invalidati e non riportati negli archivi definitivi.